sensor_id;sensor_type;location;lat;lon;timestamp;P1;durP1;ratioP1;P2;durP2;ratioP2
11439;SDS011;5776;51.814;4.510;2023-10-09T00:01:04;12.35;;;6.15;;
11439;SDS011;5776;51.814;4.510;2023-10-09T00:03:41;11.63;;;6.22;;
11439;SDS011;5776;51.814;4.510;2023-10-09T00:06:10;9.07;;;5.95;;
11439;SDS011;5776;51.814;4.510;2023-10-09T00:08:39;10.43;;;5.95;;
11439;SDS011;5776;51.814;4.510;2023-10-09T00:11:10;11.10;;;5.93;;
11439;SDS011;5776;51.814;4.510;2023-10-09T00:13:41;13.25;;;5.68;;
11439;SDS011;5776;51.814;4.510;2023-10-09T00:16:18;9.50;;;5.45;;
11439;SDS011;5776;51.814;4.510;2023-10-09T00:19:03;8.63;;;5.63;;
11439;SDS011;5776;51.814;4.510;2023-10-09T00:21:46;10.13;;;5.43;;
11439;SDS011;5776;51.814;4.510;2023-10-09T00:24:12;14.95;;;5.70;;
11439;SDS011;5776;51.814;4.510;2023-10-09T00:26:45;11.25;;;5.80;;
11439;SDS011;5776;51.814;4.510;2023-10-09T00:29:12;11.82;;;5.97;;
11439;SDS011;5776;51.814;4.510;2023-10-09T00:31:48;8.75;;;4.90;;
11439;SDS011;5776;51.814;4.510;2023-10-09T00:34:29;11.80;;;5.05;;
11439;SDS011;5776;51.814;4.510;2023-10-09T00:36:55;12.07;;;5.20;;
11439;SDS011;5776;51.814;4.510;2023-10-09T00:39:29;9.27;;;4.75;;
11439;SDS011;5776;51.814;4.510;2023-10-09T00:42:01;10.50;;;5.72;;
11439;SDS011;5776;51.814;4.510;2023-10-09T00:44:32;10.60;;;5.53;;
11439;SDS011;5776;51.814;4.510;2023-10-09T00:47:08;10.50;;;4.90;;
11439;SDS011;5776;51.814;4.510;2023-10-09T00:49:57;10.35;;;4.97;;
11439;SDS011;5776;51.814;4.510;2023-10-09T00:52:34;8.82;;;4.80;;
11439;SDS011;5776;51.814;4.510;2023-10-09T00:55:18;8.53;;;4.67;;
11439;SDS011;5776;51.814;4.510;2023-10-09T00:58:04;8.77;;;4.50;;
11439;SDS011;5776;51.814;4.510;2023-10-09T01:00:38;11.95;;;4.80;;
11439;SDS011;5776;51.814;4.510;2023-10-09T01:03:11;7.60;;;4.53;;
11439;SDS011;5776;51.814;4.510;2023-10-09T01:06:04;13.13;;;5.28;;
11439;SDS011;5776;51.814;4.510;2023-10-09T01:08:35;9.52;;;5.13;;
11439;SDS011;5776;51.814;4.510;2023-10-09T01:11:19;11.95;;;5.07;;
11439;SDS011;5776;51.814;4.510;2023-10-09T01:13:47;8.05;;;4.78;;
11439;SDS011;5776;51.814;4.510;2023-10-09T01:16:13;7.90;;;4.55;;
11439;SDS011;5776;51.814;4.510;2023-10-09T01:18:44;12.77;;;5.15;;
11439;SDS011;5776;51.814;4.510;2023-10-09T01:21:15;9.77;;;4.90;;
11439;SDS011;5776;51.814;4.510;2023-10-09T01:23:43;8.52;;;4.88;;
11439;SDS011;5776;51.814;4.510;2023-10-09T01:26:25;7.50;;;4.40;;
11439;SDS011;5776;51.814;4.510;2023-10-09T01:28:51;10.65;;;5.18;;
11439;SDS011;5776;51.814;4.510;2023-10-09T01:31:24;11.80;;;4.47;;
11439;SDS011;5776;51.814;4.510;2023-10-09T01:33:51;10.30;;;5.50;;
11439;SDS011;5776;51.814;4.510;2023-10-09T01:36:25;10.35;;;5.10;;
11439;SDS011;5776;51.814;4.510;2023-10-09T01:39:00;11.73;;;5.35;;
11439;SDS011;5776;51.814;4.510;2023-10-09T01:41:37;14.32;;;5.20;;
11439;SDS011;5776;51.814;4.510;2023-10-09T01:44:13;10.60;;;4.60;;
11439;SDS011;5776;51.814;4.510;2023-10-09T01:46:41;11.38;;;5.47;;
11439;SDS011;5776;51.814;4.510;2023-10-09T01:49:08;12.20;;;5.60;;
11439;SDS011;5776;51.814;4.510;2023-10-09T01:51:36;9.68;;;4.97;;
11439;SDS011;5776;51.814;4.510;2023-10-09T01:54:04;10.80;;;5.00;;
11439;SDS011;5776;51.814;4.510;2023-10-09T01:56:31;8.57;;;5.55;;
11439;SDS011;5776;51.814;4.510;2023-10-09T01:58:57;9.73;;;5.22;;
11439;SDS011;5776;51.814;4.510;2023-10-09T02:01:28;12.07;;;4.97;;
11439;SDS011;5776;51.814;4.510;2023-10-09T02:03:54;8.05;;;4.60;;
11439;SDS011;5776;51.814;4.510;2023-10-09T02:06:29;10.38;;;4.97;;
11439;SDS011;5776;51.814;4.510;2023-10-09T02:08:59;8.85;;;5.45;;
11439;SDS011;5776;51.814;4.510;2023-10-09T02:11:25;6.97;;;4.65;;
11439;SDS011;5776;51.814;4.510;2023-10-09T02:14:05;9.82;;;4.65;;
11439;SDS011;5776;51.814;4.510;2023-10-09T02:16:41;10.48;;;5.30;;
11439;SDS011;5776;51.814;4.510;2023-10-09T02:19:08;8.65;;;5.18;;
11439;SDS011;5776;51.814;4.510;2023-10-09T02:21:54;10.05;;;5.20;;
11439;SDS011;5776;51.814;4.510;2023-10-09T02:24:23;13.90;;;5.28;;
11439;SDS011;5776;51.814;4.510;2023-10-09T02:26:59;11.55;;;4.72;;
11439;SDS011;5776;51.814;4.510;2023-10-09T02:29:32;10.23;;;4.82;;
11439;SDS011;5776;51.814;4.510;2023-10-09T02:32:00;12.52;;;4.90;;
11439;SDS011;5776;51.814;4.510;2023-10-09T02:34:39;8.90;;;4.80;;
11439;SDS011;5776;51.814;4.510;2023-10-09T02:37:05;11.80;;;5.07;;
11439;SDS011;5776;51.814;4.510;2023-10-09T02:39:32;7.80;;;4.72;;
11439;SDS011;5776;51.814;4.510;2023-10-09T02:42:09;12.18;;;5.18;;
11439;SDS011;5776;51.814;4.510;2023-10-09T02:44:37;10.55;;;5.18;;
11439;SDS011;5776;51.814;4.510;2023-10-09T02:47:24;6.38;;;4.80;;
11439;SDS011;5776;51.814;4.510;2023-10-09T02:49:55;13.43;;;4.80;;
11439;SDS011;5776;51.814;4.510;2023-10-09T02:52:32;10.65;;;5.35;;
11439;SDS011;5776;51.814;4.510;2023-10-09T02:55:06;10.60;;;4.55;;
11439;SDS011;5776;51.814;4.510;2023-10-09T02:57:48;14.75;;;5.10;;
11439;SDS011;5776;51.814;4.510;2023-10-09T03:00:17;12.95;;;5.15;;
11439;SDS011;5776;51.814;4.510;2023-10-09T03:02:55;11.15;;;4.88;;
11439;SDS011;5776;51.814;4.510;2023-10-09T03:05:24;11.13;;;5.70;;
11439;SDS011;5776;51.814;4.510;2023-10-09T03:07:53;9.80;;;5.45;;
11439;SDS011;5776;51.814;4.510;2023-10-09T03:10:23;10.73;;;4.95;;
11439;SDS011;5776;51.814;4.510;2023-10-09T03:12:51;13.43;;;5.55;;
11439;SDS011;5776;51.814;4.510;2023-10-09T03:15:19;12.35;;;6.07;;
11439;SDS011;5776;51.814;4.510;2023-10-09T03:17:46;12.35;;;5.72;;
11439;SDS011;5776;51.814;4.510;2023-10-09T03:20:14;10.15;;;5.63;;
11439;SDS011;5776;51.814;4.510;2023-10-09T03:22:42;11.00;;;5.50;;
11439;SDS011;5776;51.814;4.510;2023-10-09T03:25:10;10.52;;;4.90;;
11439;SDS011;5776;51.814;4.510;2023-10-09T03:27:43;12.02;;;5.40;;
11439;SDS011;5776;51.814;4.510;2023-10-09T03:30:14;13.55;;;6.28;;
11439;SDS011;5776;51.814;4.510;2023-10-09T03:32:51;13.45;;;6.05;;
11439;SDS011;5776;51.814;4.510;2023-10-09T03:35:18;12.93;;;5.95;;
11439;SDS011;5776;51.814;4.510;2023-10-09T03:37:57;13.02;;;5.30;;
11439;SDS011;5776;51.814;4.510;2023-10-09T03:40:26;10.38;;;6.00;;
11439;SDS011;5776;51.814;4.510;2023-10-09T03:42:52;11.63;;;5.97;;
11439;SDS011;5776;51.814;4.510;2023-10-09T03:45:22;17.63;;;6.00;;
11439;SDS011;5776;51.814;4.510;2023-10-09T03:47:55;9.10;;;6.05;;
11439;SDS011;5776;51.814;4.510;2023-10-09T03:50:35;10.73;;;6.40;;
11439;SDS011;5776;51.814;4.510;2023-10-09T03:53:03;9.98;;;5.82;;
11439;SDS011;5776;51.814;4.510;2023-10-09T03:55:36;13.75;;;6.45;;
11439;SDS011;5776;51.814;4.510;2023-10-09T03:58:08;11.27;;;6.20;;
11439;SDS011;5776;51.814;4.510;2023-10-09T04:00:37;16.10;;;6.18;;
11439;SDS011;5776;51.814;4.510;2023-10-09T04:03:14;11.40;;;6.18;;
11439;SDS011;5776;51.814;4.510;2023-10-09T04:05:42;10.07;;;5.78;;
11439;SDS011;5776;51.814;4.510;2023-10-09T04:08:09;10.55;;;5.70;;
11439;SDS011;5776;51.814;4.510;2023-10-09T04:10:58;13.68;;;5.85;;
11439;SDS011;5776;51.814;4.510;2023-10-09T04:13:30;14.85;;;5.55;;
11439;SDS011;5776;51.814;4.510;2023-10-09T04:16:02;16.48;;;6.10;;
11439;SDS011;5776;51.814;4.510;2023-10-09T04:18:36;17.23;;;6.53;;
11439;SDS011;5776;51.814;4.510;2023-10-09T04:21:05;14.32;;;6.72;;
11439;SDS011;5776;51.814;4.510;2023-10-09T04:23:43;14.73;;;5.97;;
11439;SDS011;5776;51.814;4.510;2023-10-09T04:26:36;8.70;;;4.75;;
11439;SDS011;5776;51.814;4.510;2023-10-09T04:29:03;16.42;;;6.38;;
11439;SDS011;5776;51.814;4.510;2023-10-09T04:31:29;9.73;;;5.25;;
11439;SDS011;5776;51.814;4.510;2023-10-09T04:34:00;12.10;;;5.63;;
11439;SDS011;5776;51.814;4.510;2023-10-09T04:36:49;12.27;;;6.20;;
11439;SDS011;5776;51.814;4.510;2023-10-09T04:39:16;16.92;;;9.68;;
11439;SDS011;5776;51.814;4.510;2023-10-09T04:42:02;14.68;;;6.13;;
11439;SDS011;5776;51.814;4.510;2023-10-09T04:44:47;8.73;;;5.50;;
11439;SDS011;5776;51.814;4.510;2023-10-09T04:47:45;11.60;;;6.18;;
11439;SDS011;5776;51.814;4.510;2023-10-09T04:50:24;11.80;;;5.68;;
11439;SDS011;5776;51.814;4.510;2023-10-09T04:52:56;12.68;;;5.72;;
11439;SDS011;5776;51.814;4.510;2023-10-09T04:55:30;11.07;;;6.00;;
11439;SDS011;5776;51.814;4.510;2023-10-09T04:58:03;11.88;;;5.60;;
11439;SDS011;5776;51.814;4.510;2023-10-09T05:00:39;12.98;;;5.90;;
11439;SDS011;5776;51.814;4.510;2023-10-09T05:03:08;8.02;;;5.53;;
11439;SDS011;5776;51.814;4.510;2023-10-09T05:05:38;10.77;;;5.28;;
11439;SDS011;5776;51.814;4.510;2023-10-09T05:08:18;12.43;;;5.53;;
11439;SDS011;5776;51.814;4.510;2023-10-09T05:10:51;12.63;;;5.95;;
11439;SDS011;5776;51.814;4.510;2023-10-09T05:13:21;14.07;;;5.72;;
11439;SDS011;5776;51.814;4.510;2023-10-09T05:16:18;10.35;;;5.70;;
11439;SDS011;5776;51.814;4.510;2023-10-09T05:18:48;8.73;;;5.57;;
11439;SDS011;5776;51.814;4.510;2023-10-09T05:21:34;12.33;;;6.17;;
11439;SDS011;5776;51.814;4.510;2023-10-09T05:24:03;14.88;;;6.13;;
11439;SDS011;5776;51.814;4.510;2023-10-09T05:26:42;14.98;;;5.95;;
11439;SDS011;5776;51.814;4.510;2023-10-09T05:29:12;11.27;;;5.80;;
11439;SDS011;5776;51.814;4.510;2023-10-09T05:32:14;11.70;;;5.50;;
11439;SDS011;5776;51.814;4.510;2023-10-09T05:34:41;14.65;;;6.20;;
11439;SDS011;5776;51.814;4.510;2023-10-09T05:37:32;10.88;;;6.05;;
11439;SDS011;5776;51.814;4.510;2023-10-09T05:39:59;13.82;;;5.90;;
11439;SDS011;5776;51.814;4.510;2023-10-09T05:42:27;11.82;;;5.75;;
11439;SDS011;5776;51.814;4.510;2023-10-09T05:45:08;11.52;;;5.97;;
11439;SDS011;5776;51.814;4.510;2023-10-09T05:47:50;9.75;;;5.55;;
11439;SDS011;5776;51.814;4.510;2023-10-09T05:50:31;10.68;;;5.95;;
11439;SDS011;5776;51.814;4.510;2023-10-09T05:53:01;10.07;;;5.85;;
11439;SDS011;5776;51.814;4.510;2023-10-09T05:55:27;10.10;;;5.65;;
11439;SDS011;5776;51.814;4.510;2023-10-09T05:58:13;9.85;;;5.45;;
11439;SDS011;5776;51.814;4.510;2023-10-09T06:00:58;13.65;;;5.43;;
11439;SDS011;5776;51.814;4.510;2023-10-09T06:03:50;16.27;;;5.60;;
11439;SDS011;5776;51.814;4.510;2023-10-09T06:06:36;11.75;;;5.35;;
11439;SDS011;5776;51.814;4.510;2023-10-09T06:09:14;12.25;;;5.88;;
11439;SDS011;5776;51.814;4.510;2023-10-09T06:11:44;9.57;;;5.20;;
11439;SDS011;5776;51.814;4.510;2023-10-09T06:14:20;13.15;;;5.63;;
11439;SDS011;5776;51.814;4.510;2023-10-09T06:17:01;15.10;;;5.68;;
11439;SDS011;5776;51.814;4.510;2023-10-09T06:19:50;10.93;;;5.78;;
11439;SDS011;5776;51.814;4.510;2023-10-09T06:22:24;12.93;;;6.13;;
11439;SDS011;5776;51.814;4.510;2023-10-09T06:25:16;11.85;;;5.53;;
11439;SDS011;5776;51.814;4.510;2023-10-09T06:27:43;10.00;;;5.75;;
11439;SDS011;5776;51.814;4.510;2023-10-09T06:30:19;14.75;;;5.88;;
11439;SDS011;5776;51.814;4.510;2023-10-09T06:32:50;13.45;;;5.80;;
11439;SDS011;5776;51.814;4.510;2023-10-09T06:35:26;14.98;;;5.80;;
11439;SDS011;5776;51.814;4.510;2023-10-09T06:37:58;13.63;;;5.68;;
11439;SDS011;5776;51.814;4.510;2023-10-09T06:40:35;10.60;;;5.63;;
11439;SDS011;5776;51.814;4.510;2023-10-09T06:43:02;14.25;;;5.32;;
11439;SDS011;5776;51.814;4.510;2023-10-09T06:45:47;9.57;;;5.53;;
11439;SDS011;5776;51.814;4.510;2023-10-09T06:48:26;12.63;;;5.25;;
11439;SDS011;5776;51.814;4.510;2023-10-09T06:51:05;12.27;;;5.97;;
11439;SDS011;5776;51.814;4.510;2023-10-09T06:53:54;15.45;;;6.10;;
11439;SDS011;5776;51.814;4.510;2023-10-09T06:56:24;11.25;;;5.38;;
11439;SDS011;5776;51.814;4.510;2023-10-09T06:58:57;7.18;;;4.28;;
11439;SDS011;5776;51.814;4.510;2023-10-09T07:01:27;13.88;;;6.18;;
11439;SDS011;5776;51.814;4.510;2023-10-09T07:03:53;12.52;;;6.30;;
11439;SDS011;5776;51.814;4.510;2023-10-09T07:06:21;14.68;;;5.57;;
11439;SDS011;5776;51.814;4.510;2023-10-09T07:09:11;13.63;;;5.38;;
11439;SDS011;5776;51.814;4.510;2023-10-09T07:11:38;12.57;;;6.03;;
11439;SDS011;5776;51.814;4.510;2023-10-09T07:14:26;10.75;;;5.13;;
11439;SDS011;5776;51.814;4.510;2023-10-09T07:17:00;11.80;;;5.70;;
11439;SDS011;5776;51.814;4.510;2023-10-09T07:19:30;14.23;;;4.97;;
11439;SDS011;5776;51.814;4.510;2023-10-09T07:22:02;13.63;;;5.18;;
11439;SDS011;5776;51.814;4.510;2023-10-09T07:24:31;8.93;;;4.78;;
11439;SDS011;5776;51.814;4.510;2023-10-09T07:27:09;9.23;;;5.38;;
11439;SDS011;5776;51.814;4.510;2023-10-09T07:29:37;9.82;;;5.40;;
11439;SDS011;5776;51.814;4.510;2023-10-09T07:32:15;9.57;;;6.00;;
11439;SDS011;5776;51.814;4.510;2023-10-09T07:34:50;10.05;;;4.75;;
11439;SDS011;5776;51.814;4.510;2023-10-09T07:37:20;9.27;;;5.30;;
11439;SDS011;5776;51.814;4.510;2023-10-09T07:39:49;11.55;;;5.45;;
11439;SDS011;5776;51.814;4.510;2023-10-09T07:42:23;8.15;;;4.88;;
11439;SDS011;5776;51.814;4.510;2023-10-09T07:45:09;13.50;;;5.53;;
11439;SDS011;5776;51.814;4.510;2023-10-09T07:47:47;12.23;;;5.43;;
11439;SDS011;5776;51.814;4.510;2023-10-09T07:50:28;11.57;;;5.28;;
11439;SDS011;5776;51.814;4.510;2023-10-09T07:53:14;10.55;;;4.75;;
11439;SDS011;5776;51.814;4.510;2023-10-09T07:56:06;10.18;;;4.80;;
11439;SDS011;5776;51.814;4.510;2023-10-09T07:58:33;9.43;;;5.85;;
11439;SDS011;5776;51.814;4.510;2023-10-09T08:01:11;11.02;;;5.70;;
11439;SDS011;5776;51.814;4.510;2023-10-09T08:04:03;12.10;;;5.82;;
11439;SDS011;5776;51.814;4.510;2023-10-09T08:06:41;13.35;;;6.40;;
11439;SDS011;5776;51.814;4.510;2023-10-09T08:09:10;12.70;;;6.50;;
11439;SDS011;5776;51.814;4.510;2023-10-09T08:11:40;11.68;;;5.97;;
11439;SDS011;5776;51.814;4.510;2023-10-09T08:14:10;8.75;;;5.28;;
11439;SDS011;5776;51.814;4.510;2023-10-09T08:16:48;11.23;;;6.00;;
11439;SDS011;5776;51.814;4.510;2023-10-09T08:19:17;13.63;;;5.43;;
11439;SDS011;5776;51.814;4.510;2023-10-09T08:21:59;12.02;;;5.47;;
11439;SDS011;5776;51.814;4.510;2023-10-09T08:25:04;11.07;;;5.35;;
11439;SDS011;5776;51.814;4.510;2023-10-09T08:27:30;15.77;;;5.72;;
11439;SDS011;5776;51.814;4.510;2023-10-09T08:29:56;10.38;;;5.68;;
11439;SDS011;5776;51.814;4.510;2023-10-09T08:32:42;8.52;;;5.57;;
11439;SDS011;5776;51.814;4.510;2023-10-09T08:35:27;10.35;;;5.63;;
11439;SDS011;5776;51.814;4.510;2023-10-09T08:37:58;11.43;;;5.72;;
11439;SDS011;5776;51.814;4.510;2023-10-09T08:40:29;13.15;;;6.40;;
11439;SDS011;5776;51.814;4.510;2023-10-09T08:43:02;15.25;;;5.43;;
11439;SDS011;5776;51.814;4.510;2023-10-09T08:45:41;11.52;;;5.75;;
11439;SDS011;5776;51.814;4.510;2023-10-09T08:48:18;11.63;;;6.15;;
11439;SDS011;5776;51.814;4.510;2023-10-09T08:50:50;10.10;;;5.85;;
11439;SDS011;5776;51.814;4.510;2023-10-09T08:53:21;11.50;;;6.20;;
11439;SDS011;5776;51.814;4.510;2023-10-09T08:55:50;8.80;;;5.30;;
11439;SDS011;5776;51.814;4.510;2023-10-09T08:58:16;12.93;;;5.78;;
11439;SDS011;5776;51.814;4.510;2023-10-09T09:00:44;12.20;;;5.82;;
11439;SDS011;5776;51.814;4.510;2023-10-09T09:03:14;13.23;;;6.28;;
11439;SDS011;5776;51.814;4.510;2023-10-09T09:05:45;13.48;;;5.93;;
11439;SDS011;5776;51.814;4.510;2023-10-09T09:08:20;10.00;;;5.18;;
11439;SDS011;5776;51.814;4.510;2023-10-09T09:11:08;10.07;;;5.40;;
11439;SDS011;5776;51.814;4.510;2023-10-09T09:13:46;19.33;;;6.03;;
11439;SDS011;5776;51.814;4.510;2023-10-09T09:16:44;15.13;;;5.90;;
11439;SDS011;5776;51.814;4.510;2023-10-09T09:19:14;12.93;;;5.88;;
11439;SDS011;5776;51.814;4.510;2023-10-09T09:21:47;12.38;;;5.65;;
11439;SDS011;5776;51.814;4.510;2023-10-09T09:24:19;8.93;;;5.05;;
11439;SDS011;5776;51.814;4.510;2023-10-09T09:26:49;8.82;;;5.25;;
11439;SDS011;5776;51.814;4.510;2023-10-09T09:32:12;12.70;;;6.00;;
11439;SDS011;5776;51.814;4.510;2023-10-09T09:39:47;8.82;;;4.90;;
11439;SDS011;5776;51.814;4.510;2023-10-09T09:42:17;11.45;;;5.38;;
11439;SDS011;5776;51.814;4.510;2023-10-09T09:44:50;10.07;;;4.85;;
11439;SDS011;5776;51.814;4.510;2023-10-09T09:47:17;11.88;;;5.25;;
11439;SDS011;5776;51.814;4.510;2023-10-09T09:49:53;9.20;;;5.22;;
11439;SDS011;5776;51.814;4.510;2023-10-09T09:52:29;12.65;;;5.43;;
11439;SDS011;5776;51.814;4.510;2023-10-09T09:55:03;10.48;;;3.97;;
11439;SDS011;5776;51.814;4.510;2023-10-09T09:57:29;10.10;;;4.65;;
11439;SDS011;5776;51.814;4.510;2023-10-09T09:59:57;7.32;;;4.68;;
11439;SDS011;5776;51.814;4.510;2023-10-09T10:02:31;11.93;;;4.70;;
11439;SDS011;5776;51.814;4.510;2023-10-09T10:05:02;8.68;;;4.35;;
11439;SDS011;5776;51.814;4.510;2023-10-09T10:07:32;9.18;;;4.18;;
11439;SDS011;5776;51.814;4.510;2023-10-09T10:10:33;11.85;;;4.70;;
11439;SDS011;5776;51.814;4.510;2023-10-09T10:18:59;11.65;;;4.80;;
11439;SDS011;5776;51.814;4.510;2023-10-09T10:21:29;8.63;;;4.68;;
11439;SDS011;5776;51.814;4.510;2023-10-09T10:24:01;10.55;;;4.70;;
11439;SDS011;5776;51.814;4.510;2023-10-09T10:26:36;11.77;;;4.25;;
11439;SDS011;5776;51.814;4.510;2023-10-09T10:29:18;12.82;;;4.55;;
11439;SDS011;5776;51.814;4.510;2023-10-09T10:31:51;8.57;;;4.07;;
11439;SDS011;5776;51.814;4.510;2023-10-09T10:34:51;11.20;;;4.50;;
11439;SDS011;5776;51.814;4.510;2023-10-09T10:37:34;9.98;;;4.40;;
11439;SDS011;5776;51.814;4.510;2023-10-09T10:40:09;9.10;;;4.38;;
11439;SDS011;5776;51.814;4.510;2023-10-09T10:42:47;9.20;;;4.22;;
11439;SDS011;5776;51.814;4.510;2023-10-09T10:45:34;10.23;;;4.47;;
11439;SDS011;5776;51.814;4.510;2023-10-09T10:48:01;9.30;;;4.60;;
11439;SDS011;5776;51.814;4.510;2023-10-09T10:50:34;10.18;;;4.03;;
11439;SDS011;5776;51.814;4.510;2023-10-09T10:53:13;13.23;;;4.70;;
11439;SDS011;5776;51.814;4.510;2023-10-09T10:55:50;9.80;;;4.80;;
11439;SDS011;5776;51.814;4.510;2023-10-09T10:58:22;10.63;;;4.70;;
11439;SDS011;5776;51.814;4.510;2023-10-09T11:01:01;11.02;;;4.53;;
11439;SDS011;5776;51.814;4.510;2023-10-09T11:03:38;14.23;;;4.30;;
11439;SDS011;5776;51.814;4.510;2023-10-09T11:06:29;11.10;;;4.60;;
11439;SDS011;5776;51.814;4.510;2023-10-09T11:09:08;11.00;;;4.13;;
11439;SDS011;5776;51.814;4.510;2023-10-09T11:11:50;10.50;;;4.57;;
11439;SDS011;5776;51.814;4.510;2023-10-09T11:14:20;9.93;;;4.82;;
11439;SDS011;5776;51.814;4.510;2023-10-09T11:16:50;10.60;;;4.68;;
11439;SDS011;5776;51.814;4.510;2023-10-09T11:19:20;11.15;;;4.78;;
11439;SDS011;5776;51.814;4.510;2023-10-09T11:21:54;7.45;;;4.32;;
11439;SDS011;5776;51.814;4.510;2023-10-09T11:24:35;9.68;;;4.13;;
11439;SDS011;5776;51.814;4.510;2023-10-09T11:27:02;12.00;;;4.43;;
11439;SDS011;5776;51.814;4.510;2023-10-09T11:29:32;15.90;;;4.30;;
11439;SDS011;5776;51.814;4.510;2023-10-09T11:32:17;11.88;;;4.32;;
11439;SDS011;5776;51.814;4.510;2023-10-09T11:34:47;7.22;;;3.97;;
11439;SDS011;5776;51.814;4.510;2023-10-09T11:37:36;13.60;;;4.20;;
11439;SDS011;5776;51.814;4.510;2023-10-09T11:40:26;8.27;;;4.40;;
11439;SDS011;5776;51.814;4.510;2023-10-09T11:43:24;7.70;;;3.80;;
11439;SDS011;5776;51.814;4.510;2023-10-09T11:46:10;8.15;;;3.42;;
11439;SDS011;5776;51.814;4.510;2023-10-09T11:48:39;11.18;;;4.65;;
11439;SDS011;5776;51.814;4.510;2023-10-09T11:51:34;11.80;;;3.80;;
11439;SDS011;5776;51.814;4.510;2023-10-09T11:54:03;9.30;;;4.05;;
11439;SDS011;5776;51.814;4.510;2023-10-09T11:56:33;12.63;;;4.63;;
11439;SDS011;5776;51.814;4.510;2023-10-09T11:58:59;7.35;;;3.92;;
11439;SDS011;5776;51.814;4.510;2023-10-09T12:01:30;8.63;;;4.50;;
11439;SDS011;5776;51.814;4.510;2023-10-09T12:04:00;11.38;;;4.20;;
11439;SDS011;5776;51.814;4.510;2023-10-09T12:06:26;10.73;;;3.70;;
11439;SDS011;5776;51.814;4.510;2023-10-09T12:08:57;9.38;;;4.00;;
11439;SDS011;5776;51.814;4.510;2023-10-09T12:11:24;6.78;;;4.03;;
11439;SDS011;5776;51.814;4.510;2023-10-09T12:13:56;10.13;;;3.58;;
11439;SDS011;5776;51.814;4.510;2023-10-09T12:16:22;7.35;;;3.53;;
11439;SDS011;5776;51.814;4.510;2023-10-09T12:18:56;5.93;;;3.50;;
11439;SDS011;5776;51.814;4.510;2023-10-09T12:21:23;7.22;;;3.97;;
11439;SDS011;5776;51.814;4.510;2023-10-09T12:23:50;15.18;;;3.78;;
11439;SDS011;5776;51.814;4.510;2023-10-09T12:26:16;12.75;;;4.55;;
11439;SDS011;5776;51.814;4.510;2023-10-09T12:28:42;10.32;;;4.03;;
11439;SDS011;5776;51.814;4.510;2023-10-09T12:31:15;6.93;;;3.33;;
11439;SDS011;5776;51.814;4.510;2023-10-09T12:33:47;8.40;;;3.47;;
11439;SDS011;5776;51.814;4.510;2023-10-09T12:36:13;6.05;;;3.65;;
11439;SDS011;5776;51.814;4.510;2023-10-09T12:38:46;9.63;;;3.58;;
11439;SDS011;5776;51.814;4.510;2023-10-09T12:41:16;11.07;;;3.85;;
11439;SDS011;5776;51.814;4.510;2023-10-09T12:43:52;11.02;;;3.92;;
11439;SDS011;5776;51.814;4.510;2023-10-09T12:46:19;7.35;;;3.65;;
11439;SDS011;5776;51.814;4.510;2023-10-09T12:48:48;10.15;;;3.47;;
11439;SDS011;5776;51.814;4.510;2023-10-09T12:51:15;9.32;;;3.83;;
11439;SDS011;5776;51.814;4.510;2023-10-09T12:53:45;7.50;;;4.28;;
11439;SDS011;5776;51.814;4.510;2023-10-09T12:56:16;7.13;;;3.40;;
11439;SDS011;5776;51.814;4.510;2023-10-09T12:58:43;13.73;;;4.13;;
11439;SDS011;5776;51.814;4.510;2023-10-09T13:01:18;8.43;;;3.97;;
11439;SDS011;5776;51.814;4.510;2023-10-09T13:03:46;12.18;;;3.90;;
11439;SDS011;5776;51.814;4.510;2023-10-09T13:06:15;9.88;;;4.47;;
11439;SDS011;5776;51.814;4.510;2023-10-09T13:08:49;11.75;;;3.90;;
11439;SDS011;5776;51.814;4.510;2023-10-09T13:11:15;14.00;;;4.32;;
11439;SDS011;5776;51.814;4.510;2023-10-09T13:13:44;9.40;;;4.38;;
11439;SDS011;5776;51.814;4.510;2023-10-09T13:16:20;9.23;;;3.80;;
11439;SDS011;5776;51.814;4.510;2023-10-09T13:18:53;8.00;;;3.78;;
11439;SDS011;5776;51.814;4.510;2023-10-09T13:21:20;9.00;;;3.90;;
11439;SDS011;5776;51.814;4.510;2023-10-09T13:23:48;8.25;;;4.35;;
11439;SDS011;5776;51.814;4.510;2023-10-09T13:26:17;7.88;;;3.72;;
11439;SDS011;5776;51.814;4.510;2023-10-09T13:28:47;12.55;;;4.15;;
11439;SDS011;5776;51.814;4.510;2023-10-09T13:31:14;9.90;;;3.78;;
11439;SDS011;5776;51.814;4.510;2023-10-09T13:33:41;8.18;;;4.10;;
11439;SDS011;5776;51.814;4.510;2023-10-09T13:36:08;9.40;;;4.35;;
11439;SDS011;5776;51.814;4.510;2023-10-09T13:38:53;9.85;;;4.50;;
11439;SDS011;5776;51.814;4.510;2023-10-09T13:41:20;10.23;;;3.95;;
11439;SDS011;5776;51.814;4.510;2023-10-09T13:43:47;16.75;;;4.07;;
11439;SDS011;5776;51.814;4.510;2023-10-09T13:46:17;10.10;;;4.18;;
11439;SDS011;5776;51.814;4.510;2023-10-09T13:48:43;9.15;;;4.07;;
11439;SDS011;5776;51.814;4.510;2023-10-09T13:51:11;9.13;;;4.38;;
11439;SDS011;5776;51.814;4.510;2023-10-09T13:53:48;11.60;;;4.82;;
11439;SDS011;5776;51.814;4.510;2023-10-09T13:56:16;8.88;;;3.83;;
11439;SDS011;5776;51.814;4.510;2023-10-09T13:58:47;10.23;;;4.90;;
11439;SDS011;5776;51.814;4.510;2023-10-09T14:01:17;7.85;;;4.20;;
11439;SDS011;5776;51.814;4.510;2023-10-09T14:03:53;12.05;;;4.57;;
11439;SDS011;5776;51.814;4.510;2023-10-09T14:06:24;14.57;;;4.10;;
11439;SDS011;5776;51.814;4.510;2023-10-09T14:09:00;8.13;;;3.78;;
11439;SDS011;5776;51.814;4.510;2023-10-09T14:11:35;8.88;;;4.25;;
11439;SDS011;5776;51.814;4.510;2023-10-09T14:14:04;12.32;;;4.75;;
11439;SDS011;5776;51.814;4.510;2023-10-09T14:16:35;10.38;;;4.60;;
11439;SDS011;5776;51.814;4.510;2023-10-09T14:19:02;9.18;;;4.68;;
11439;SDS011;5776;51.814;4.510;2023-10-09T14:21:33;10.48;;;4.75;;
11439;SDS011;5776;51.814;4.510;2023-10-09T14:24:03;9.10;;;4.40;;
11439;SDS011;5776;51.814;4.510;2023-10-09T14:26:42;10.50;;;4.28;;
11439;SDS011;5776;51.814;4.510;2023-10-09T14:29:11;10.90;;;4.50;;
11439;SDS011;5776;51.814;4.510;2023-10-09T14:31:44;9.68;;;5.22;;
11439;SDS011;5776;51.814;4.510;2023-10-09T14:34:14;9.20;;;4.40;;
11439;SDS011;5776;51.814;4.510;2023-10-09T14:36:40;9.80;;;4.40;;
11439;SDS011;5776;51.814;4.510;2023-10-09T14:39:10;11.35;;;4.75;;
11439;SDS011;5776;51.814;4.510;2023-10-09T14:41:43;11.27;;;5.05;;
11439;SDS011;5776;51.814;4.510;2023-10-09T14:44:10;9.52;;;4.45;;
11439;SDS011;5776;51.814;4.510;2023-10-09T14:46:42;11.18;;;4.72;;
11439;SDS011;5776;51.814;4.510;2023-10-09T14:49:11;8.27;;;4.13;;
11439;SDS011;5776;51.814;4.510;2023-10-09T14:51:39;11.35;;;4.55;;
11439;SDS011;5776;51.814;4.510;2023-10-09T14:54:06;14.52;;;4.70;;
11439;SDS011;5776;51.814;4.510;2023-10-09T14:56:33;9.40;;;4.57;;
11439;SDS011;5776;51.814;4.510;2023-10-09T14:59:01;11.05;;;4.32;;
11439;SDS011;5776;51.814;4.510;2023-10-09T15:01:28;12.18;;;4.40;;
11439;SDS011;5776;51.814;4.510;2023-10-09T15:03:57;12.68;;;3.78;;
11439;SDS011;5776;51.814;4.510;2023-10-09T15:06:25;9.68;;;4.10;;
11439;SDS011;5776;51.814;4.510;2023-10-09T15:08:56;17.40;;;5.03;;
11439;SDS011;5776;51.814;4.510;2023-10-09T15:11:25;9.45;;;4.60;;
11439;SDS011;5776;51.814;4.510;2023-10-09T15:13:54;9.07;;;4.70;;
11439;SDS011;5776;51.814;4.510;2023-10-09T15:16:22;11.40;;;4.55;;
11439;SDS011;5776;51.814;4.510;2023-10-09T15:18:53;12.77;;;4.53;;
11439;SDS011;5776;51.814;4.510;2023-10-09T15:21:20;9.00;;;4.38;;
11439;SDS011;5776;51.814;4.510;2023-10-09T15:24:01;9.02;;;4.50;;
11439;SDS011;5776;51.814;4.510;2023-10-09T15:26:27;8.65;;;4.75;;
11439;SDS011;5776;51.814;4.510;2023-10-09T15:28:59;10.85;;;4.00;;
11439;SDS011;5776;51.814;4.510;2023-10-09T15:31:29;9.40;;;3.90;;
11439;SDS011;5776;51.814;4.510;2023-10-09T15:33:56;13.85;;;4.40;;
11439;SDS011;5776;51.814;4.510;2023-10-09T15:36:23;14.50;;;5.32;;
11439;SDS011;5776;51.814;4.510;2023-10-09T15:38:55;8.00;;;3.67;;
11439;SDS011;5776;51.814;4.510;2023-10-09T15:41:27;11.90;;;4.53;;
11439;SDS011;5776;51.814;4.510;2023-10-09T15:43:55;10.20;;;4.93;;
11439;SDS011;5776;51.814;4.510;2023-10-09T15:46:41;8.68;;;4.20;;